Time;durP1;ratioP1;P1;durP2;ratioP2;P2;SDS_P1;SDS_P2;PMS_P1;PMS_P2;Temp;Humidity;BMP_temperature;BMP_pressure;BME280_temperature;BME280_humidity;BME280_pressure;Samples;Min_cycle;Max_cycle;Signal;HPM_P1;HPM_P2
2023/12/05 00:06:02;;;;;;;1.80;1.20;;;;;;;;;;5085810;27;20411;-82
2023/12/05 00:08:27;;;;;;;3.13;1.50;;;;;;;;;;5087635;28;20032;-82
2023/12/05 00:10:52;;;;;;;0.90;0.90;;;;;;;;;;5086520;28;20056;-83
2023/12/05 00:13:18;;;;;;;1.90;1.80;;;;;;;;;;5085024;28;20017;-82
2023/12/05 00:15:43;;;;;;;2.00;1.85;;;;;;;;;;5087239;28;20063;-83
2023/12/05 00:18:09;;;;;;;2.55;2.35;;;;;;;;;;5087026;28;20048;-83
2023/12/05 00:20:35;;;;;;;1.17;1.15;;;;;;;;;;5085038;28;20479;-83
2023/12/05 00:23:00;;;;;;;1.70;1.42;;;;;;;;;;5086734;28;20028;-83
2023/12/05 00:25:25;;;;;;;0.80;0.80;;;;;;;;;;5086742;28;20111;-84
2023/12/05 00:27:51;;;;;;;1.55;1.45;;;;;;;;;;5085081;28;20115;-81
2023/12/05 00:30:16;;;;;;;2.20;1.95;;;;;;;;;;5085556;28;20028;-83
2023/12/05 00:32:42;;;;;;;4.90;2.83;;;;;;;;;;5086062;28;20050;-83
2023/12/05 00:35:08;;;;;;;1.95;1.65;;;;;;;;;;5086341;28;20027;-81
2023/12/05 00:37:33;;;;;;;7.90;3.88;;;;;;;;;;5088397;28;20034;-82
2023/12/05 00:39:58;;;;;;;2.30;2.10;;;;;;;;;;5089969;28;20055;-82
2023/12/05 00:42:25;;;;;;;1.88;1.77;;;;;;;;;;5091064;28;20106;-83
2023/12/05 00:44:50;;;;;;;0.85;0.82;;;;;;;;;;5090217;28;20046;-82
2023/12/05 00:47:16;;;;;;;2.42;2.25;;;;;;;;;;5087205;28;20032;-81
2023/12/05 00:49:41;;;;;;;1.95;1.73;;;;;;;;;;5085782;28;20089;-82
2023/12/05 00:52:06;;;;;;;1.17;1.08;;;;;;;;;;5089048;28;20150;-82
2023/12/05 00:54:32;;;;;;;1.25;1.15;;;;;;;;;;5090412;28;20147;-82
2023/12/05 00:56:57;;;;;;;0.40;0.40;;;;;;;;;;5089492;28;20097;-82
2023/12/05 00:59:23;;;;;;;3.92;1.33;;;;;;;;;;5089352;28;20111;-82
2023/12/05 01:01:48;;;;;;;0.75;0.70;;;;;;;;;;5089820;28;20573;-84
2023/12/05 01:04:14;;;;;;;1.65;1.27;;;;;;;;;;5084130;28;20052;-83
2023/12/05 01:06:39;;;;;;;0.80;0.80;;;;;;;;;;5076674;28;20024;-83
2023/12/05 01:09:10;;;;;;;2.38;1.52;;;;;;;;;;5078287;28;20020;-84
2023/12/05 01:11:35;;;;;;;0.43;0.43;;;;;;;;;;5075566;28;20089;-85
2023/12/05 01:14:01;;;;;;;2.78;1.52;;;;;;;;;;5075123;28;21380;-83
2023/12/05 01:16:26;;;;;;;1.30;1.17;;;;;;;;;;5074620;28;20480;-84
2023/12/05 01:18:52;;;;;;;1.70;1.17;;;;;;;;;;5078271;28;20028;-84
2023/12/05 01:21:17;;;;;;;2.35;1.58;;;;;;;;;;5070958;28;20036;-83
2023/12/05 01:23:42;;;;;;;1.60;1.27;;;;;;;;;;5071487;28;22230;-82
2023/12/05 01:26:08;;;;;;;3.70;2.88;;;;;;;;;;5073565;28;20107;-84
2023/12/05 01:28:33;;;;;;;1.13;1.02;;;;;;;;;;5077024;28;20039;-83
2023/12/05 01:30:59;;;;;;;0.73;0.73;;;;;;;;;;5074073;28;20471;-84
2023/12/05 01:33:24;;;;;;;2.20;1.17;;;;;;;;;;5077050;28;20119;-85
2023/12/05 01:35:50;;;;;;;2.45;1.13;;;;;;;;;;5074637;28;20032;-82
2023/12/05 01:38:18;;;;;;;1.67;1.38;;;;;;;;;;5074513;28;20028;-83
2023/12/05 01:40:44;;;;;;;0.80;0.80;;;;;;;;;;5075926;28;20099;-82
2023/12/05 01:43:09;;;;;;;1.13;1.13;;;;;;;;;;5073417;28;20135;-83
2023/12/05 01:45:34;;;;;;;1.67;1.58;;;;;;;;;;5076758;28;20031;-83
2023/12/05 01:48:00;;;;;;;0.65;0.65;;;;;;;;;;5074709;28;20036;-82
2023/12/05 01:50:27;;;;;;;2.20;1.98;;;;;;;;;;5073274;28;20124;-83
2023/12/05 01:52:56;;;;;;;1.10;1.08;;;;;;;;;;5074935;28;20017;-83
2023/12/05 01:55:22;;;;;;;0.98;0.98;;;;;;;;;;5073671;28;20467;-82
2023/12/05 01:57:48;;;;;;;1.38;1.27;;;;;;;;;;5072582;28;20036;-84
2023/12/05 02:00:21;;;;;;;1.65;0.82;;;;;;;;;;5071795;28;20115;-84
2023/12/05 02:02:48;;;;;;;2.42;0.88;;;;;;;;;;5072724;28;20783;-83
2023/12/05 02:05:14;;;;;;;0.90;0.88;;;;;;;;;;5071989;28;20041;-84
2023/12/05 02:07:40;;;;;;;1.63;1.52;;;;;;;;;;5072527;28;20418;-84
2023/12/05 02:10:07;;;;;;;1.83;1.73;;;;;;;;;;5074157;28;20471;-85
2023/12/05 02:12:33;;;;;;;2.08;1.88;;;;;;;;;;5070143;28;20042;-83
2023/12/05 02:14:59;;;;;;;4.82;1.60;;;;;;;;;;5073900;28;20825;-83
2023/12/05 02:17:55;;;;;;;1.27;1.10;;;;;;;;;;5069637;28;20024;-83
2023/12/05 02:20:56;;;;;;;6.43;1.42;;;;;;;;;;5071726;28;20032;-84
2023/12/05 02:23:43;;;;;;;2.88;1.85;;;;;;;;;;5068714;28;20037;-83
2023/12/05 02:26:20;;;;;;;1.90;1.80;;;;;;;;;;5070992;28;20531;-84
2023/12/05 02:28:47;;;;;;;6.53;1.83;;;;;;;;;;5069781;28;20487;-84
2023/12/05 02:31:12;;;;;;;1.27;0.95;;;;;;;;;;5074082;28;20033;-83
2023/12/05 02:33:38;;;;;;;1.10;1.08;;;;;;;;;;5072265;28;20031;-84
2023/12/05 02:36:15;;;;;;;1.95;1.83;;;;;;;;;;5073374;28;20410;-84
2023/12/05 02:39:01;;;;;;;4.10;1.83;;;;;;;;;;5071710;28;20035;-83
2023/12/05 02:41:30;;;;;;;0.82;0.80;;;;;;;;;;5071177;28;20039;-83
2023/12/05 02:44:04;;;;;;;3.38;1.58;;;;;;;;;;5070698;28;20027;-83
2023/12/05 02:46:31;;;;;;;1.88;1.77;;;;;;;;;;5074454;28;20036;-82
2023/12/05 02:48:58;;;;;;;1.52;1.42;;;;;;;;;;5072038;28;20427;-81
2023/12/05 02:51:23;;;;;;;1.65;1.55;;;;;;;;;;5075120;28;20027;-83
2023/12/05 02:53:49;;;;;;;1.98;1.83;;;;;;;;;;5107271;28;20028;-82
2023/12/05 02:56:15;;;;;;;1.95;1.30;;;;;;;;;;5073215;28;20032;-83
2023/12/05 02:58:40;;;;;;;0.90;0.85;;;;;;;;;;5071927;28;20024;-83
2023/12/05 03:01:06;;;;;;;0.82;0.80;;;;;;;;;;5071694;28;20456;-82
2023/12/05 03:03:31;;;;;;;1.63;1.25;;;;;;;;;;5070464;28;20112;-82
2023/12/05 03:05:57;;;;;;;3.17;2.03;;;;;;;;;;5069949;28;20048;-80
2023/12/05 03:08:22;;;;;;;3.13;2.00;;;;;;;;;;5069006;28;20472;-82
2023/12/05 03:10:50;;;;;;;1.27;1.15;;;;;;;;;;5070102;28;20060;-81
2023/12/05 03:13:16;;;;;;;0.82;0.82;;;;;;;;;;5072584;28;20024;-81
2023/12/05 03:15:41;;;;;;;1.67;1.52;;;;;;;;;;5069366;28;20036;-82
2023/12/05 03:18:06;;;;;;;3.42;1.55;;;;;;;;;;5069752;28;20028;-81
2023/12/05 03:20:32;;;;;;;0.68;0.68;;;;;;;;;;5069211;28;20040;-84
2023/12/05 03:22:57;;;;;;;4.68;3.08;;;;;;;;;;5072722;28;20111;-83
2023/12/05 03:25:23;;;;;;;0.60;0.60;;;;;;;;;;5068980;28;20086;-82
2023/12/05 03:27:48;;;;;;;2.45;1.83;;;;;;;;;;5069217;28;20081;-83
2023/12/05 03:30:14;;;;;;;2.25;1.20;;;;;;;;;;5069190;28;20021;-83
2023/12/05 03:32:39;;;;;;;1.30;1.20;;;;;;;;;;5069741;28;20024;-83
2023/12/05 03:35:05;;;;;;;2.83;1.92;;;;;;;;;;5069812;28;20024;-84
2023/12/05 03:37:30;;;;;;;2.60;1.00;;;;;;;;;;5070408;28;20051;-83
2023/12/05 03:39:56;;;;;;;0.98;0.95;;;;;;;;;;5071369;28;20777;-83
2023/12/05 03:42:21;;;;;;;1.20;1.08;;;;;;;;;;5099900;28;20027;-83
2023/12/05 03:44:46;;;;;;;5.05;2.60;;;;;;;;;;5067811;28;20020;-84
2023/12/05 03:47:12;;;;;;;2.30;2.10;;;;;;;;;;5069691;28;20048;-84
2023/12/05 03:49:37;;;;;;;1.73;1.63;;;;;;;;;;5068545;28;20588;-84
2023/12/05 03:52:03;;;;;;;1.65;1.55;;;;;;;;;;5069985;28;20038;-83
2023/12/05 03:54:29;;;;;;;4.07;2.08;;;;;;;;;;5069357;28;20108;-84
2023/12/05 03:56:54;;;;;;;1.58;1.33;;;;;;;;;;5071311;28;20028;-83
2023/12/05 03:59:19;;;;;;;2.05;1.50;;;;;;;;;;5070203;28;20036;-83
2023/12/05 04:01:45;;;;;;;1.80;1.65;;;;;;;;;;5073380;28;20034;-82
2023/12/05 04:04:10;;;;;;;1.52;1.42;;;;;;;;;;5100071;28;20051;-83
2023/12/05 04:06:36;;;;;;;0.77;0.77;;;;;;;;;;5069173;28;20043;-83
2023/12/05 04:09:03;;;;;;;1.40;1.30;;;;;;;;;;5068718;28;20032;-84
2023/12/05 04:11:30;;;;;;;2.10;1.90;;;;;;;;;;5067858;28;20037;-84
2023/12/05 04:13:57;;;;;;;1.58;1.48;;;;;;;;;;5098528;28;20352;-84
2023/12/05 04:16:23;;;;;;;2.63;1.55;;;;;;;;;;5069761;28;20361;-83
2023/12/05 04:18:48;;;;;;;1.67;1.58;;;;;;;;;;5070016;28;20038;-83
2023/12/05 04:21:13;;;;;;;1.60;1.27;;;;;;;;;;5069287;28;20491;-82
2023/12/05 04:23:40;;;;;;;2.08;1.90;;;;;;;;;;5065746;28;21413;-83
2023/12/05 04:26:06;;;;;;;1.45;1.35;;;;;;;;;;5072333;28;20060;-83
2023/12/05 04:28:32;;;;;;;1.73;1.63;;;;;;;;;;5067525;28;20041;-83
2023/12/05 04:30:57;;;;;;;6.20;3.47;;;;;;;;;;5070312;28;20078;-84
2023/12/05 04:33:23;;;;;;;2.38;2.08;;;;;;;;;;5072625;28;20111;-84
2023/12/05 04:35:48;;;;;;;2.20;1.83;;;;;;;;;;5068909;28;20028;-85
2023/12/05 04:38:14;;;;;;;2.28;2.08;;;;;;;;;;5070816;28;20028;-84
2023/12/05 04:40:40;;;;;;;1.65;1.55;;;;;;;;;;5069433;28;20028;-84
2023/12/05 04:43:05;;;;;;;3.38;2.33;;;;;;;;;;5073984;28;20032;-84
2023/12/05 04:45:34;;;;;;;2.63;1.42;;;;;;;;;;5069635;28;20379;-83
2023/12/05 04:47:59;;;;;;;3.88;2.53;;;;;;;;;;5071888;28;20044;-84
2023/12/05 04:50:25;;;;;;;1.10;1.10;;;;;;;;;;5073022;28;20495;-84
2023/12/05 04:52:50;;;;;;;1.77;1.65;;;;;;;;;;5074876;28;20094;-84
2023/12/05 04:55:15;;;;;;;1.77;1.48;;;;;;;;;;5074875;28;20027;-83
2023/12/05 04:57:41;;;;;;;2.20;2.08;;;;;;;;;;5070757;28;20021;-85
2023/12/05 05:00:08;;;;;;;1.60;1.10;;;;;;;;;;5074448;28;20048;-82
2023/12/05 05:02:34;;;;;;;2.47;2.28;;;;;;;;;;5088792;28;20033;-84
2023/12/05 05:05:02;;;;;;;2.25;1.63;;;;;;;;;;5075312;28;20110;-83
2023/12/05 05:07:28;;;;;;;4.45;1.70;;;;;;;;;;5075131;28;20036;-83
2023/12/05 05:09:53;;;;;;;7.43;2.53;;;;;;;;;;5070583;28;20522;-82
2023/12/05 05:12:19;;;;;;;1.58;1.50;;;;;;;;;;5072742;28;20673;-79
2023/12/05 05:14:44;;;;;;;2.28;1.88;;;;;;;;;;5070831;28;20062;-82
2023/12/05 05:17:12;;;;;;;3.17;2.97;;;;;;;;;;5070570;28;20473;-81
2023/12/05 05:19:37;;;;;;;2.17;1.98;;;;;;;;;;5070740;28;20380;-81
2023/12/05 05:22:03;;;;;;;9.90;2.60;;;;;;;;;;5069892;28;20048;-81
2023/12/05 05:24:29;;;;;;;1.65;1.25;;;;;;;;;;5070925;28;20032;-81
2023/12/05 05:26:54;;;;;;;2.92;1.88;;;;;;;;;;5071077;28;20036;-81
2023/12/05 05:29:20;;;;;;;2.53;2.33;;;;;;;;;;5070401;28;20035;-79
2023/12/05 05:31:45;;;;;;;1.42;1.27;;;;;;;;;;5070240;28;20028;-85
2023/12/05 05:34:11;;;;;;;3.53;2.13;;;;;;;;;;5068974;28;20124;-81
2023/12/05 05:36:36;;;;;;;2.05;1.92;;;;;;;;;;5069834;28;20036;-80
2023/12/05 05:39:02;;;;;;;1.45;1.35;;;;;;;;;;5071072;28;20024;-82
2023/12/05 05:41:27;;;;;;;0.80;0.80;;;;;;;;;;5069690;28;20037;-80
2023/12/05 05:43:53;;;;;;;0.80;0.80;;;;;;;;;;5070239;28;20121;-80
2023/12/05 05:46:18;;;;;;;3.08;1.75;;;;;;;;;;5069802;28;20079;-80
2023/12/05 05:48:51;;;;;;;2.83;2.15;;;;;;;;;;5071750;28;20032;-79
2023/12/05 05:51:17;;;;;;;2.20;1.98;;;;;;;;;;5072111;28;20039;-80
2023/12/05 05:53:43;;;;;;;1.55;1.45;;;;;;;;;;5070805;28;20025;-81
2023/12/05 05:56:09;;;;;;;2.83;2.28;;;;;;;;;;5070722;28;20040;-80
2023/12/05 05:58:34;;;;;;;1.55;1.45;;;;;;;;;;5070914;28;20041;-81
2023/12/05 06:01:00;;;;;;;1.33;1.25;;;;;;;;;;5070033;28;20050;-79
2023/12/05 06:03:28;;;;;;;1.52;1.42;;;;;;;;;;5069566;28;20028;-82
2023/12/05 06:05:54;;;;;;;1.15;1.08;;;;;;;;;;5068732;28;20229;-81
2023/12/05 06:08:19;;;;;;;1.67;1.20;;;;;;;;;;5069390;28;20036;-81
2023/12/05 06:10:45;;;;;;;3.00;2.08;;;;;;;;;;5069857;28;20457;-81
2023/12/05 06:13:10;;;;;;;3.80;1.80;;;;;;;;;;5071413;28;20055;-80
2023/12/05 06:15:38;;;;;;;4.15;2.05;;;;;;;;;;5069088;28;20035;-80
2023/12/05 06:18:04;;;;;;;2.50;2.05;;;;;;;;;;5068051;28;20036;-81
2023/12/05 06:20:29;;;;;;;3.17;1.70;;;;;;;;;;5065960;28;20036;-80
2023/12/05 06:22:55;;;;;;;1.35;1.17;;;;;;;;;;5070262;28;20039;-80
2023/12/05 06:25:20;;;;;;;0.90;0.90;;;;;;;;;;5062841;28;20163;-79
2023/12/05 06:27:46;;;;;;;2.03;1.23;;;;;;;;;;5068777;28;20058;-79
2023/12/05 06:30:12;;;;;;;1.33;1.23;;;;;;;;;;5068824;28;20038;-79
2023/12/05 06:32:37;;;;;;;3.42;1.70;;;;;;;;;;5070331;28;20032;-82
2023/12/05 06:35:03;;;;;;;2.85;1.90;;;;;;;;;;5067696;28;20406;-81
2023/12/05 06:37:28;;;;;;;0.98;0.80;;;;;;;;;;5069048;28;20123;-78
2023/12/05 06:39:54;;;;;;;9.82;1.52;;;;;;;;;;5065417;28;20106;-80
2023/12/05 06:42:20;;;;;;;0.95;0.93;;;;;;;;;;5068873;28;20048;-79
2023/12/05 06:44:45;;;;;;;2.05;1.88;;;;;;;;;;5067772;28;20456;-79
2023/12/05 06:47:11;;;;;;;4.25;1.58;;;;;;;;;;5069181;28;20032;-80
2023/12/05 06:49:37;;;;;;;0.80;0.77;;;;;;;;;;5067866;28;20032;-80
2023/12/05 06:52:02;;;;;;;2.55;1.05;;;;;;;;;;5068092;28;20020;-80
2023/12/05 06:54:28;;;;;;;1.33;1.27;;;;;;;;;;5069683;28;20108;-79
2023/12/05 06:56:54;;;;;;;2.38;2.17;;;;;;;;;;5062046;28;20025;-79
2023/12/05 06:59:19;;;;;;;1.13;1.08;;;;;;;;;;5067374;28;20032;-78
2023/12/05 07:01:45;;;;;;;1.70;1.60;;;;;;;;;;5066892;28;20064;-79
2023/12/05 07:04:10;;;;;;;1.52;1.42;;;;;;;;;;5067038;28;20102;-79
2023/12/05 07:06:36;;;;;;;3.08;2.88;;;;;;;;;;5067287;28;20107;-78
2023/12/05 07:09:01;;;;;;;2.13;1.83;;;;;;;;;;5066462;28;20029;-79
2023/12/05 07:11:27;;;;;;;1.15;1.15;;;;;;;;;;5065836;28;20036;-80
2023/12/05 07:13:53;;;;;;;1.38;1.33;;;;;;;;;;5068692;28;20024;-79
2023/12/05 07:16:18;;;;;;;3.58;2.85;;;;;;;;;;5068618;28;20028;-80
2023/12/05 07:18:44;;;;;;;2.45;2.15;;;;;;;;;;5068504;28;20040;-76
2023/12/05 07:21:10;;;;;;;4.35;1.92;;;;;;;;;;5068075;28;20350;-78
2023/12/05 07:23:36;;;;;;;2.17;2.00;;;;;;;;;;5066754;28;20109;-77
2023/12/05 07:26:02;;;;;;;1.98;1.88;;;;;;;;;;5066825;28;20024;-77
2023/12/05 07:28:31;;;;;;;2.63;2.13;;;;;;;;;;5066183;28;20454;-79
2023/12/05 07:30:57;;;;;;;2.05;1.88;;;;;;;;;;5069489;28;20463;-77
2023/12/05 07:33:22;;;;;;;3.70;2.00;;;;;;;;;;5068978;28;20028;-79
2023/12/05 07:35:47;;;;;;;2.92;2.70;;;;;;;;;;5067994;28;20050;-77
2023/12/05 07:38:13;;;;;;;2.10;2.00;;;;;;;;;;5069872;28;20032;-78
2023/12/05 07:40:38;;;;;;;4.30;2.13;;;;;;;;;;5069126;28;20024;-78
2023/12/05 07:43:04;;;;;;;3.58;2.15;;;;;;;;;;5067810;28;20028;-78
2023/12/05 07:45:30;;;;;;;3.10;1.85;;;;;;;;;;5068233;28;20029;-79
2023/12/05 07:47:56;;;;;;;5.28;1.58;;;;;;;;;;5069224;28;20116;-77
2023/12/05 07:50:22;;;;;;;2.47;2.28;;;;;;;;;;5068484;28;20021;-79
2023/12/05 07:52:51;;;;;;;9.27;3.67;;;;;;;;;;5069362;28;20127;-78
2023/12/05 07:55:17;;;;;;;10.17;4.27;;;;;;;;;;5069350;28;20095;-77
2023/12/05 07:57:44;;;;;;;2.03;1.58;;;;;;;;;;5068450;28;20056;-78
2023/12/05 08:00:16;;;;;;;1.98;1.88;;;;;;;;;;5067281;28;20029;-77
2023/12/05 08:02:42;;;;;;;9.18;4.30;;;;;;;;;;5066670;28;20408;-78
2023/12/05 08:05:07;;;;;;;4.38;3.95;;;;;;;;;;5067735;28;20113;-79
2023/12/05 08:07:33;;;;;;;2.63;2.47;;;;;;;;;;5068803;28;20622;-78
2023/12/05 08:09:58;;;;;;;6.47;5.03;;;;;;;;;;5066020;28;20043;-79
2023/12/05 08:12:23;;;;;;;7.35;4.93;;;;;;;;;;5068825;28;20020;-78
2023/12/05 08:14:49;;;;;;;4.18;3.78;;;;;;;;;;5068868;28;20039;-78
2023/12/05 08:17:14;;;;;;;11.05;5.75;;;;;;;;;;5068992;28;20044;-79
2023/12/05 08:19:40;;;;;;;7.53;4.43;;;;;;;;;;5072685;28;20025;-79
2023/12/05 08:22:05;;;;;;;5.50;3.42;;;;;;;;;;5072619;28;20056;-79
2023/12/05 08:24:30;;;;;;;9.25;4.90;;;;;;;;;;5071370;28;20029;-80
2023/12/05 08:26:56;;;;;;;3.83;3.50;;;;;;;;;;5070662;28;20035;-77
2023/12/05 08:29:21;;;;;;;5.25;4.18;;;;;;;;;;5072680;28;20028;-77
2023/12/05 08:31:47;;;;;;;6.45;5.13;;;;;;;;;;5070567;28;20028;-79
2023/12/05 08:34:12;;;;;;;6.57;4.63;;;;;;;;;;5070476;28;20048;-79
2023/12/05 08:36:38;;;;;;;3.30;3.10;;;;;;;;;;5066745;28;20474;-80
2023/12/05 08:39:03;;;;;;;6.50;3.28;;;;;;;;;;5068897;28;20024;-80
2023/12/05 08:41:29;;;;;;;4.03;3.63;;;;;;;;;;5067514;28;20036;-77
2023/12/05 08:43:54;;;;;;;4.03;3.38;;;;;;;;;;5070713;28;20143;-78
2023/12/05 08:46:20;;;;;;;5.15;3.97;;;;;;;;;;5069435;28;20521;-80
2023/12/05 08:48:45;;;;;;;5.88;4.30;;;;;;;;;;5072091;28;20021;-79
2023/12/05 08:51:11;;;;;;;3.78;2.28;;;;;;;;;;5069255;28;20160;-77
2023/12/05 08:53:36;;;;;;;4.93;3.95;;;;;;;;;;5072080;28;20025;-79
2023/12/05 08:56:04;;;;;;;6.40;4.05;;;;;;;;;;5070827;28;20472;-78
2023/12/05 08:58:29;;;;;;;4.20;3.53;;;;;;;;;;5071799;28;20575;-78
2023/12/05 09:00:55;;;;;;;9.38;4.57;;;;;;;;;;5070890;28;20115;-79
2023/12/05 09:03:23;;;;;;;7.18;4.03;;;;;;;;;;5071613;28;20061;-78
2023/12/05 09:05:48;;;;;;;4.70;3.45;;;;;;;;;;5071098;28;20040;-77
2023/12/05 09:08:14;;;;;;;3.08;2.63;;;;;;;;;;5070361;28;20035;-77
2023/12/05 09:10:39;;;;;;;3.03;2.22;;;;;;;;;;5070066;28;20073;-79
2023/12/05 09:13:05;;;;;;;2.78;2.30;;;;;;;;;;5072086;28;20460;-80
2023/12/05 09:15:30;;;;;;;3.72;3.42;;;;;;;;;;5071614;28;20024;-79
2023/12/05 09:17:55;;;;;;;5.13;4.07;;;;;;;;;;5070090;28;20093;-78
2023/12/05 09:20:21;;;;;;;5.32;4.20;;;;;;;;;;5072033;28;20472;-78
2023/12/05 09:22:46;;;;;;;3.22;2.13;;;;;;;;;;5071505;28;20044;-78
2023/12/05 09:25:12;;;;;;;7.80;4.30;;;;;;;;;;5068510;28;20460;-78
2023/12/05 09:27:37;;;;;;;5.03;3.45;;;;;;;;;;5070672;28;20029;-78
2023/12/05 09:30:03;;;;;;;5.00;3.40;;;;;;;;;;5071020;28;20086;-80
2023/12/05 09:32:29;;;;;;;2.70;2.35;;;;;;;;;;5069783;28;20029;-78
2023/12/05 09:34:54;;;;;;;15.20;2.25;;;;;;;;;;5071375;28;20016;-76
2023/12/05 09:37:23;;;;;;;2.47;2.28;;;;;;;;;;5070244;28;20028;-78
2023/12/05 09:39:49;;;;;;;3.00;1.70;;;;;;;;;;5068757;28;20028;-79
2023/12/05 09:42:18;;;;;;;2.95;2.13;;;;;;;;;;5070806;28;20392;-77
2023/12/05 09:44:47;;;;;;;2.35;2.15;;;;;;;;;;5070613;28;20043;-79
2023/12/05 09:47:18;;;;;;;9.00;2.50;;;;;;;;;;5070772;28;20032;-78
2023/12/05 09:49:43;;;;;;;3.40;2.75;;;;;;;;;;5069122;28;20042;-77
2023/12/05 09:52:10;;;;;;;2.17;1.90;;;;;;;;;;5070800;28;20025;-77
2023/12/05 09:54:37;;;;;;;5.82;2.90;;;;;;;;;;5068768;28;20033;-78
2023/12/05 09:57:03;;;;;;;2.20;1.50;;;;;;;;;;5069860;28;20159;-79
2023/12/05 09:59:29;;;;;;;5.25;3.60;;;;;;;;;;5070430;28;20475;-81
2023/12/05 10:02:00;;;;;;;2.50;1.98;;;;;;;;;;5070053;28;20123;-78
2023/12/05 10:04:28;;;;;;;8.75;2.58;;;;;;;;;;5067688;28;20059;-77
2023/12/05 10:06:56;;;;;;;6.60;3.45;;;;;;;;;;5070527;28;20115;-79
2023/12/05 10:09:23;;;;;;;8.63;4.85;;;;;;;;;;5069250;28;20028;-79
2023/12/05 10:11:50;;;;;;;4.07;3.28;;;;;;;;;;5070513;28;20043;-78
2023/12/05 10:14:16;;;;;;;7.03;3.88;;;;;;;;;;5068361;28;20031;-78
2023/12/05 10:16:43;;;;;;;2.45;2.00;;;;;;;;;;5067361;28;20106;-78
2023/12/05 10:19:09;;;;;;;2.10;1.60;;;;;;;;;;5067402;28;20078;-78
2023/12/05 10:21:36;;;;;;;3.63;2.10;;;;;;;;;;5069976;28;20032;-78
2023/12/05 10:24:01;;;;;;;1.63;1.42;;;;;;;;;;5069459;28;20037;-77
2023/12/05 10:26:28;;;;;;;2.92;2.10;;;;;;;;;;5069854;28;20087;-77
2023/12/05 10:28:57;;;;;;;3.40;2.35;;;;;;;;;;5067701;28;20102;-79
2023/12/05 10:31:23;;;;;;;1.50;1.40;;;;;;;;;;5067183;28;20368;-80
2023/12/05 10:33:49;;;;;;;2.40;2.15;;;;;;;;;;5066984;28;20029;-79
2023/12/05 10:36:15;;;;;;;3.78;1.65;;;;;;;;;;5068656;28;20032;-79
2023/12/05 10:38:47;;;;;;;11.70;2.85;;;;;;;;;;5069310;28;20486;-80
2023/12/05 10:41:22;;;;;;;3.60;2.28;;;;;;;;;;5065587;28;20062;-77
2023/12/05 10:43:49;;;;;;;2.22;1.83;;;;;;;;;;5067061;28;20040;-77
2023/12/05 10:46:15;;;;;;;2.13;1.88;;;;;;;;;;5070342;28;20024;-80
2023/12/05 10:48:40;;;;;;;5.45;2.30;;;;;;;;;;5069151;28;20021;-80
2023/12/05 10:51:10;;;;;;;1.77;1.67;;;;;;;;;;5068036;28;20082;-79
2023/12/05 10:53:36;;;;;;;3.30;2.80;;;;;;;;;;5067487;28;20056;-81
2023/12/05 10:56:14;;;;;;;4.55;3.20;;;;;;;;;;5068966;28;20315;-79
2023/12/05 10:58:41;;;;;;;5.82;4.55;;;;;;;;;;5069286;28;20055;-79
2023/12/05 11:01:10;;;;;;;2.00;1.90;;;;;;;;;;5067297;28;20024;-81
2023/12/05 11:03:41;;;;;;;3.40;3.05;;;;;;;;;;5069108;28;20047;-82
2023/12/05 11:06:07;;;;;;;5.68;3.08;;;;;;;;;;5066939;28;20032;-78
2023/12/05 11:08:34;;;;;;;6.32;3.45;;;;;;;;;;5068569;28;20492;-81
2023/12/05 11:11:03;;;;;;;10.98;2.53;;;;;;;;;;5066998;28;20111;-80
2023/12/05 11:13:31;;;;;;;3.88;2.40;;;;;;;;;;5067208;28;20381;-79
2023/12/05 11:16:02;;;;;;;6.90;3.03;;;;;;;;;;5067681;28;20066;-78
2023/12/05 11:18:35;;;;;;;3.80;3.13;;;;;;;;;;5066656;28;20060;-80
2023/12/05 11:21:15;;;;;;;4.68;2.28;;;;;;;;;;5101203;28;20025;-79
2023/12/05 11:23:50;;;;;;;5.20;2.05;;;;;;;;;;5067118;28;20020;-79
2023/12/05 11:26:33;;;;;;;4.47;2.60;;;;;;;;;;5068328;28;20114;-79
2023/12/05 11:29:17;;;;;;;2.97;2.35;;;;;;;;;;5068887;28;20035;-79
2023/12/05 11:31:51;;;;;;;2.75;2.00;;;;;;;;;;5069416;28;20105;-80
2023/12/05 11:34:38;;;;;;;3.75;2.20;;;;;;;;;;5067327;28;20102;-79
2023/12/05 11:37:12;;;;;;;4.38;2.80;;;;;;;;;;5069684;28;20028;-78
2023/12/05 11:39:37;;;;;;;5.22;3.40;;;;;;;;;;5067691;28;20103;-80
2023/12/05 11:42:09;;;;;;;7.40;3.13;;;;;;;;;;5069494;28;20103;-80
2023/12/05 11:44:36;;;;;;;3.30;2.33;;;;;;;;;;5068503;28;20028;-79
2023/12/05 11:47:03;;;;;;;3.83;3.53;;;;;;;;;;5069211;28;20028;-79
2023/12/05 11:49:49;;;;;;;6.40;3.67;;;;;;;;;;5068443;28;20036;-77
2023/12/05 11:52:15;;;;;;;1.25;1.23;;;;;;;;;;5069202;28;20024;-80
2023/12/05 11:54:43;;;;;;;1.98;1.48;;;;;;;;;;5067165;28;20029;-78
2023/12/05 11:57:19;;;;;;;3.88;2.10;;;;;;;;;;5068678;28;20472;-78
2023/12/05 11:59:46;;;;;;;4.57;3.50;;;;;;;;;;5068442;28;20032;-78
2023/12/05 12:02:23;;;;;;;2.58;2.38;;;;;;;;;;5068854;28;20027;-80
2023/12/05 12:05:03;;;;;;;3.33;3.03;;;;;;;;;;5066237;28;20120;-78
2023/12/05 12:07:29;;;;;;;7.25;2.45;;;;;;;;;;5068418;28;20042;-79
2023/12/05 12:09:54;;;;;;;3.47;2.25;;;;;;;;;;5068991;28;20056;-79
2023/12/05 12:12:20;;;;;;;1.63;1.42;;;;;;;;;;5067901;28;21318;-79
2023/12/05 12:14:47;;;;;;;2.78;2.58;;;;;;;;;;5068409;28;20475;-78
2023/12/05 12:17:13;;;;;;;2.67;1.85;;;;;;;;;;5069331;28;20137;-80
2023/12/05 12:19:39;;;;;;;2.90;2.42;;;;;;;;;;5069401;28;20051;-79
2023/12/05 12:22:07;;;;;;;7.32;3.47;;;;;;;;;;5067448;28;20496;-79
2023/12/05 12:24:33;;;;;;;2.78;2.17;;;;;;;;;;5067710;28;20494;-78
2023/12/05 12:26:58;;;;;;;2.35;1.38;;;;;;;;;;5068736;28;20032;-78
2023/12/05 12:29:25;;;;;;;1.13;1.02;;;;;;;;;;5066536;28;20036;-80
2023/12/05 12:31:54;;;;;;;1.10;1.02;;;;;;;;;;5068151;28;20469;-80
2023/12/05 12:34:27;;;;;;;2.17;1.88;;;;;;;;;;5067655;28;20415;-80
2023/12/05 12:36:53;;;;;;;2.92;2.30;;;;;;;;;;5066972;28;20039;-79
2023/12/05 12:39:20;;;;;;;4.00;2.50;;;;;;;;;;5067708;28;20056;-80
2023/12/05 12:41:48;;;;;;;3.40;2.55;;;;;;;;;;5067774;28;20828;-78
2023/12/05 12:44:19;;;;;;;4.22;1.60;;;;;;;;;;5067215;28;20112;-78
2023/12/05 12:46:45;;;;;;;3.90;2.45;;;;;;;;;;5066150;28;20047;-79
2023/12/05 12:49:11;;;;;;;4.82;2.67;;;;;;;;;;5068966;28;20024;-79
2023/12/05 12:51:39;;;;;;;5.28;2.25;;;;;;;;;;5068332;28;20028;-79
2023/12/05 12:54:08;;;;;;;5.03;3.00;;;;;;;;;;5068516;28;20041;-79
2023/12/05 12:56:35;;;;;;;7.97;4.35;;;;;;;;;;5068396;28;20036;-80
2023/12/05 12:59:02;;;;;;;2.78;2.55;;;;;;;;;;5068567;28;20391;-80
2023/12/05 13:01:32;;;;;;;5.25;1.98;;;;;;;;;;5067892;28;20024;-82
2023/12/05 13:03:58;;;;;;;1.98;1.80;;;;;;;;;;5069282;28;20048;-80
2023/12/05 13:06:24;;;;;;;4.07;2.45;;;;;;;;;;5071101;28;20034;-79
2023/12/05 13:08:50;;;;;;;4.72;2.58;;;;;;;;;;5070877;28;20028;-79
2023/12/05 13:11:16;;;;;;;2.17;1.95;;;;;;;;;;5069728;28;20024;-80
2023/12/05 13:13:42;;;;;;;0.95;0.93;;;;;;;;;;5071220;28;20016;-81
2023/12/05 13:16:08;;;;;;;2.80;1.98;;;;;;;;;;5070549;28;20040;-80
2023/12/05 13:18:45;;;;;;;3.70;2.80;;;;;;;;;;5071725;28;20290;-79
2023/12/05 13:21:12;;;;;;;1.17;1.08;;;;;;;;;;5071040;28;20035;-79
2023/12/05 13:23:37;;;;;;;2.17;1.55;;;;;;;;;;5072042;28;20032;-79
2023/12/05 13:26:04;;;;;;;1.25;1.15;;;;;;;;;;5100917;28;20025;-82
2023/12/05 13:28:30;;;;;;;1.73;1.63;;;;;;;;;;5070261;28;20032;-81
2023/12/05 13:30:56;;;;;;;3.53;2.28;;;;;;;;;;5071116;28;20028;-82
2023/12/05 13:33:23;;;;;;;1.75;1.65;;;;;;;;;;5069389;28;20037;-84
2023/12/05 13:35:50;;;;;;;5.43;1.52;;;;;;;;;;5070877;28;20086;-79
2023/12/05 13:38:16;;;;;;;3.00;1.63;;;;;;;;;;5069959;28;20488;-80
2023/12/05 13:40:41;;;;;;;2.05;1.85;;;;;;;;;;5069088;28;20058;-81
2023/12/05 13:43:07;;;;;;;1.63;1.52;;;;;;;;;;5070337;28;20039;-80
2023/12/05 13:45:33;;;;;;;3.75;2.30;;;;;;;;;;5069382;28;20365;-80
2023/12/05 13:47:58;;;;;;;3.78;3.20;;;;;;;;;;5071598;28;20078;-80
2023/12/05 13:50:25;;;;;;;4.15;3.58;;;;;;;;;;5069196;28;20050;-80
2023/12/05 13:52:51;;;;;;;4.20;2.15;;;;;;;;;;5068588;28;20115;-80
2023/12/05 13:55:17;;;;;;;3.53;2.55;;;;;;;;;;5071182;28;20108;-80
2023/12/05 13:57:42;;;;;;;3.55;2.72;;;;;;;;;;5071121;28;20039;-82
2023/12/05 14:00:10;;;;;;;2.70;2.45;;;;;;;;;;5071399;28;20025;-82
2023/12/05 14:02:36;;;;;;;2.08;1.63;;;;;;;;;;5068925;28;20032;-83
2023/12/05 14:05:01;;;;;;;2.45;1.27;;;;;;;;;;5070544;28;20051;-82
2023/12/05 14:07:27;;;;;;;2.05;1.58;;;;;;;;;;5068332;28;20813;-81
2023/12/05 14:09:53;;;;;;;4.22;2.65;;;;;;;;;;5071133;28;20024;-82
2023/12/05 14:12:19;;;;;;;1.70;1.60;;;;;;;;;;5070854;28;20078;-81
2023/12/05 14:14:44;;;;;;;7.35;2.58;;;;;;;;;;5069575;28;20078;-80
2023/12/05 14:17:09;;;;;;;2.03;1.83;;;;;;;;;;5069985;28;20016;-78
2023/12/05 14:19:35;;;;;;;2.15;1.95;;;;;;;;;;5068955;28;20096;-81
2023/12/05 14:22:00;;;;;;;1.35;1.25;;;;;;;;;;5069257;28;20032;-80
2023/12/05 14:24:26;;;;;;;3.40;1.77;;;;;;;;;;5070102;28;20361;-79
2023/12/05 14:26:51;;;;;;;2.15;1.70;;;;;;;;;;5069616;28;20464;-79
2023/12/05 14:29:17;;;;;;;1.42;1.33;;;;;;;;;;5068696;28;20524;-78
2023/12/05 14:31:44;;;;;;;4.22;2.30;;;;;;;;;;5070644;28;20024;-80
2023/12/05 14:34:09;;;;;;;6.57;3.30;;;;;;;;;;5068781;28;20057;-80
2023/12/05 14:36:35;;;;;;;3.00;2.53;;;;;;;;;;5068949;28;20504;-80
2023/12/05 14:39:00;;;;;;;5.63;2.10;;;;;;;;;;5067688;28;20036;-79
2023/12/05 14:41:26;;;;;;;4.97;3.35;;;;;;;;;;5067800;28;20027;-80
2023/12/05 14:43:51;;;;;;;3.83;2.75;;;;;;;;;;5068562;28;20041;-80
2023/12/05 14:46:17;;;;;;;3.67;2.75;;;;;;;;;;5068076;28;20384;-79